Time;durP1;ratioP1;P1;durP2;ratioP2;P2;SDS_P1;SDS_P2;PMS_P1;PMS_P2;Temp;Humidity;BMP_temperature;BMP_pressure;BME280_temperature;BME280_humidity;BME280_pressure;Samples;Min_cycle;Max_cycle;Signal;HPM_P1;HPM_P2
2022/07/01 00:01:49;;;;;;;12.55;8.75;;;;;;;28.77;46.01;100803.66;4974661;28;100426;-73
2022/07/01 00:04:16;;;;;;;10.05;8.48;;;;;;;28.75;45.92;100794.78;4971796;28;97692;-73
2022/07/01 00:06:43;;;;;;;10.55;9.20;;;;;;;28.73;46.24;100801.41;4967584;28;97618;-73
2022/07/01 00:09:09;;;;;;;10.68;8.98;;;;;;;28.75;46.33;100802.94;4969055;28;96989;-73
2022/07/01 00:11:36;;;;;;;10.10;9.07;;;;;;;28.72;46.47;100797.84;4964926;28;98911;-72
2022/07/01 00:14:02;;;;;;;10.30;9.25;;;;;;;28.48;47.15;100800.56;4968925;28;97568;-72
2022/07/01 00:16:29;;;;;;;10.00;8.93;;;;;;;28.45;47.11;100792.72;4967381;28;96872;-71
2022/07/01 00:18:56;;;;;;;10.25;8.75;;;;;;;28.54;46.86;100795.31;4970053;28;97677;-72
2022/07/01 00:21:23;;;;;;;10.85;9.85;;;;;;;28.57;46.98;100788.66;4968375;28;99022;-72
2022/07/01 00:23:49;;;;;;;11.07;9.63;;;;;;;28.44;47.33;100780.16;4971788;28;98885;-73
2022/07/01 00:26:15;;;;;;;11.68;10.48;;;;;;;28.35;48.07;100782.03;4971406;28;97236;-73
2022/07/01 00:28:42;;;;;;;10.45;9.30;;;;;;;28.26;48.24;100780.31;4970304;28;97064;-72
2022/07/01 00:31:08;;;;;;;11.02;9.98;;;;;;;28.17;48.50;100781.31;4968857;28;98406;-73
2022/07/01 00:33:34;;;;;;;12.55;10.48;;;;;;;28.10;48.81;100775.66;4970370;28;99018;-73
2022/07/01 00:36:02;;;;;;;14.95;10.30;;;;;;;28.16;48.49;100779.59;4973893;28;98608;-72
2022/07/01 00:38:28;;;;;;;13.23;11.32;;;;;;;28.08;48.83;100780.44;4974018;28;97182;-73
2022/07/01 00:40:55;;;;;;;11.90;10.70;;;;;;;28.14;48.52;100781.66;4965858;28;99314;-73
2022/07/01 00:43:22;;;;;;;11.30;10.10;;;;;;;27.94;49.29;100767.50;4968674;28;99030;-72
2022/07/01 00:45:50;;;;;;;15.15;11.10;;;;;;;27.93;49.53;100757.63;4969406;28;98659;-72
2022/07/01 00:48:17;;;;;;;15.13;11.18;;;;;;;27.97;49.24;100760.84;4969987;28;97176;-72
2022/07/01 00:50:44;;;;;;;13.02;11.18;;;;;;;27.93;49.30;100763.06;4969995;28;99688;-74
2022/07/01 00:53:12;;;;;;;14.55;11.05;;;;;;;27.94;49.53;100772.06;4971256;28;98901;-73
2022/07/01 00:55:38;;;;;;;14.95;11.48;;;;;;;27.96;49.57;100765.44;4969169;28;98387;-72
2022/07/01 00:58:05;;;;;;;12.50;11.15;;;;;;;28.01;49.28;100771.25;4971057;28;97745;-72
2022/07/01 01:00:31;;;;;;;13.57;10.95;;;;;;;27.94;49.56;100767.50;4967777;28;101890;-72
2022/07/01 01:02:58;;;;;;;13.27;11.88;;;;;;;27.97;49.56;100769.84;4973018;28;98583;-72
2022/07/01 01:05:25;;;;;;;14.73;11.60;;;;;;;27.94;49.67;100772.06;4970104;28;97417;-72
2022/07/01 01:07:52;;;;;;;15.00;11.77;;;;;;;28.03;49.42;100766.47;4969463;28;98010;-72
2022/07/01 01:10:20;;;;;;;13.60;11.73;;;;;;;28.07;49.35;100765.16;4966610;28;99643;-73
2022/07/01 01:12:46;;;;;;;13.50;11.82;;;;;;;28.14;49.09;100765.34;4968813;28;99181;-72
2022/07/01 01:15:18;;;;;;;14.40;12.20;;;;;;;28.00;49.87;100766.81;4971711;28;96934;-71
2022/07/01 01:17:46;;;;;;;13.57;12.27;;;;;;;28.02;49.78;100769.38;4966854;28;98933;-72
2022/07/01 01:20:15;;;;;;;17.50;13.35;;;;;;;27.97;50.01;100766.28;4967911;28;98901;-71
2022/07/01 01:22:44;;;;;;;15.50;13.05;;;;;;;27.66;50.89;100757.91;4969553;28;99168;-72
2022/07/01 01:25:10;;;;;;;14.18;12.25;;;;;;;27.86;50.59;100770.19;4970124;28;97725;-73
2022/07/01 01:27:37;;;;;;;14.30;12.80;;;;;;;27.87;50.73;100763.75;4971161;28;97211;-72
2022/07/01 01:30:04;;;;;;;18.40;13.00;;;;;;;27.79;50.75;100769.13;4969286;28;97729;-72
2022/07/01 01:32:31;;;;;;;15.57;13.32;;;;;;;27.42;51.92;100763.19;4970038;28;98874;-72
2022/07/01 01:34:57;;;;;;;17.27;13.65;;;;;;;27.69;51.00;100760.28;4970305;28;96847;-72
2022/07/01 01:37:24;;;;;;;15.23;13.35;;;;;;;27.66;51.30;100761.47;4970697;28;98172;-72
2022/07/01 01:39:54;;;;;;;16.58;14.20;;;;;;;27.83;50.81;100754.19;4969519;28;98917;-73
2022/07/01 01:42:21;;;;;;;18.33;13.40;;;;;;;27.74;51.01;100757.94;4968824;28;99581;-73
2022/07/01 01:44:48;;;;;;;18.20;15.05;;;;;;;27.76;50.97;100759.44;4969381;28;97140;-72
2022/07/01 01:47:14;;;;;;;17.20;15.02;;;;;;;27.90;50.60;100755.25;4967263;28;97925;-72
2022/07/01 01:49:40;;;;;;;16.55;14.10;;;;;;;27.98;50.33;100751.69;4969157;28;99022;-71
2022/07/01 01:52:07;;;;;;;17.75;14.43;;;;;;;27.80;51.01;100743.69;4968931;28;98536;-72
2022/07/01 01:54:36;;;;;;;18.73;14.35;;;;;;;27.80;50.98;100738.25;4970356;28;96902;-72
2022/07/01 01:57:04;;;;;;;16.15;14.05;;;;;;;27.83;50.82;100735.19;4966816;28;96981;-72
2022/07/01 01:59:31;;;;;;;21.30;14.98;;;;;;;27.74;51.31;100733.50;4969811;28;101277;-72
2022/07/01 02:01:57;;;;;;;17.75;15.48;;;;;;;27.85;51.05;100724.19;4968053;28;100655;-72
2022/07/01 02:04:24;;;;;;;17.60;14.82;;;;;;;27.73;51.43;100715.50;4970319;28;96802;-70
2022/07/01 02:06:51;;;;;;;20.13;16.08;;;;;;;27.72;51.44;100717.38;4969943;28;97178;-72
2022/07/01 02:09:17;;;;;;;18.17;16.02;;;;;;;27.64;51.86;100713.78;4969777;28;98973;-72
2022/07/01 02:11:43;;;;;;;22.83;16.35;;;;;;;27.69;51.68;100719.56;4966960;28;98690;-72
2022/07/01 02:14:11;;;;;;;21.23;16.00;;;;;;;27.65;51.87;100718.19;4969199;28;99003;-72
2022/07/01 02:16:38;;;;;;;18.95;15.77;;;;;;;27.66;51.57;100719.88;4968277;28;98877;-73
2022/07/01 02:19:04;;;;;;;20.83;15.60;;;;;;;27.79;51.61;100722.97;4968472;28;99053;-73
2022/07/01 02:21:30;;;;;;;19.02;16.25;;;;;;;27.66;51.97;100719.88;4966504;28;98082;-73
2022/07/01 02:23:57;;;;;;;17.05;15.38;;;;;;;27.60;52.11;100734.97;4970198;28;97525;-73
2022/07/01 02:26:23;;;;;;;20.60;15.45;;;;;;;27.48;52.59;100732.69;4967721;28;96768;-72
2022/07/01 02:28:50;;;;;;;18.23;15.35;;;;;;;27.58;52.20;100733.44;4971222;28;99200;-72
2022/07/01 02:31:17;;;;;;;21.35;16.83;;;;;;;27.59;52.25;100732.41;4965588;28;98233;-72
2022/07/01 02:33:44;;;;;;;21.02;16.60;;;;;;;27.67;52.30;100735.16;4969162;28;96909;-72
2022/07/01 02:36:10;;;;;;;21.88;16.65;;;;;;;27.71;51.98;100733.81;4969228;28;97769;-72
2022/07/01 02:38:36;;;;;;;23.80;16.58;;;;;;;27.76;52.01;100734.19;4968884;28;99163;-72
2022/07/01 02:41:03;;;;;;;18.83;16.58;;;;;;;27.68;52.28;100735.00;4966866;28;99349;-72
2022/07/01 02:43:29;;;;;;;19.27;16.33;;;;;;;27.64;52.25;100746.34;4967979;28;97039;-72
2022/07/01 02:45:57;;;;;;;20.85;16.83;;;;;;;27.67;52.48;100748.75;4969314;28;97036;-71
2022/07/01 02:48:25;;;;;;;23.75;17.42;;;;;;;27.72;52.43;100749.09;4963287;28;98796;-72
2022/07/01 02:50:51;;;;;;;20.45;17.85;;;;;;;27.57;52.81;100756.19;4965009;28;98872;-72
2022/07/01 02:53:17;;;;;;;20.83;17.15;;;;;;;27.55;52.71;100752.78;4970482;28;96795;-73
2022/07/01 02:55:44;;;;;;;20.13;16.60;;;;;;;27.50;53.22;100746.97;4969110;28;96930;-74
2022/07/01 02:58:10;;;;;;;19.75;16.65;;;;;;;27.62;52.69;100751.97;4969945;28;99055;-72
2022/07/01 03:00:36;;;;;;;21.52;15.90;;;;;;;27.61;52.87;100755.69;4965286;28;98830;-72
2022/07/01 03:03:03;;;;;;;21.30;17.73;;;;;;;27.52;53.29;100766.66;4968734;28;96963;-72
2022/07/01 03:05:31;;;;;;;21.30;17.77;;;;;;;27.24;54.04;100772.25;4967099;28;97788;-72
2022/07/01 03:07:58;;;;;;;23.83;16.98;;;;;;;27.32;53.91;100768.72;4967506;28;98938;-72
2022/07/01 03:10:24;;;;;;;21.20;17.33;;;;;;;27.29;53.73;100766.34;4967542;28;99420;-73
2022/07/01 03:12:51;;;;;;;20.20;16.95;;;;;;;27.13;54.50;100767.09;4968226;28;97192;-73
2022/07/01 03:15:17;;;;;;;20.48;16.98;;;;;;;27.24;54.00;100763.28;4968952;28;96997;-73
2022/07/01 03:17:45;;;;;;;21.13;16.67;;;;;;;27.40;53.74;100757.94;4967841;28;99009;-73
2022/07/01 03:20:14;;;;;;;20.85;16.88;;;;;;;27.36;53.67;100762.84;4965780;28;98877;-73
2022/07/01 03:22:43;;;;;;;19.40;16.95;;;;;;;27.52;53.41;100755.78;4968263;28;97405;-73
2022/07/01 03:25:10;;;;;;;18.92;16.42;;;;;;;27.56;53.27;100768.03;4966234;28;98597;-73
2022/07/01 03:27:37;;;;;;;24.25;17.27;;;;;;;27.35;53.80;100769.28;4968714;28;98457;-73
2022/07/01 03:30:05;;;;;;;20.58;17.40;;;;;;;27.52;53.48;100751.22;4963849;28;97295;-73
2022/07/01 03:32:32;;;;;;;20.00;16.23;;;;;;;27.52;53.35;100761.22;4968313;28;97540;-73
2022/07/01 03:34:58;;;;;;;21.38;17.40;;;;;;;27.60;53.30;100753.13;4968999;28;97671;-73
2022/07/01 03:37:25;;;;;;;20.40;17.08;;;;;;;27.57;53.37;100756.19;4967511;28;99194;-73
2022/07/01 03:39:53;;;;;;;21.95;17.90;;;;;;;27.42;53.74;100760.47;4967569;28;99164;-73
2022/07/01 03:42:19;;;;;;;24.10;17.63;;;;;;;27.26;54.41;100755.81;4968166;28;96846;-72
2022/07/01 03:44:46;;;;;;;24.38;17.70;;;;;;;27.43;54.01;100762.19;4968694;28;97907;-73
2022/07/01 03:47:12;;;;;;;20.23;17.85;;;;;;;27.21;54.60;100759.03;4957119;28;98988;-73
2022/07/01 03:49:38;;;;;;;22.98;17.42;;;;;;;27.45;54.00;100760.13;4970618;28;98592;-73
2022/07/01 03:52:06;;;;;;;24.70;18.60;;;;;;;27.20;54.59;100765.44;4968055;28;97041;-72
2022/07/01 03:54:32;;;;;;;22.15;16.65;;;;;;;27.36;54.04;100764.69;4969234;28;98619;-72
2022/07/01 03:57:02;;;;;;;20.70;17.33;;;;;;;27.45;53.99;100757.44;4969136;28;99022;-71
2022/07/01 03:59:31;;;;;;;22.02;17.98;;;;;;;27.58;53.75;100760.56;4971008;28;98906;-71
2022/07/01 04:01:58;;;;;;;19.85;17.45;;;;;;;27.52;53.80;100766.66;4961774;28;98478;-74
2022/07/01 04:04:25;;;;;;;21.80;17.58;;;;;;;27.65;53.45;100762.47;4969926;28;97052;-72
2022/07/01 04:06:52;;;;;;;22.63;18.02;;;;;;;27.73;53.31;100758.94;4964908;28;99191;-72
2022/07/01 04:09:19;;;;;;;20.10;17.98;;;;;;;27.71;53.66;100763.66;4967759;28;99033;-72
2022/07/01 04:11:46;;;;;;;22.75;17.55;;;;;;;27.84;53.01;100772.19;4965590;28;97466;-73
2022/07/01 04:14:15;;;;;;;21.25;17.38;;;;;;;27.87;52.92;100771.88;4968737;28;96776;-73
2022/07/01 04:16:42;;;;;;;23.73;17.83;;;;;;;27.78;53.20;100770.16;4968296;28;98955;-72
2022/07/01 04:19:09;;;;;;;22.70;18.67;;;;;;;27.90;53.04;100771.53;4967259;28;101185;-73
2022/07/01 04:24:20;;;;;;;22.65;17.75;;;;;;;28.03;52.83;100766.47;4967085;28;98278;-72
2022/07/01 04:26:46;;;;;;;20.70;16.98;;;;;;;28.14;52.39;100765.34;4963659;28;99358;-73
2022/07/01 04:29:12;;;;;;;24.38;17.83;;;;;;;27.88;53.43;100762.72;4969251;28;98865;-73
2022/07/01 04:31:41;;;;;;;20.85;18.23;;;;;;;28.08;52.87;100763.28;4972238;28;97151;-72
2022/07/01 04:34:09;;;;;;;23.15;17.95;;;;;;;28.03;52.92;100758.31;4965412;28;98521;-72
2022/07/01 04:36:35;;;;;;;24.55;17.90;;;;;;;28.22;52.63;100759.09;4966762;28;98731;-73
2022/07/01 04:39:02;;;;;;;24.40;17.92;;;;;;;28.43;51.96;100757.56;4970047;28;98985;-72
2022/07/01 04:44:13;;;;;;;28.08;18.08;;;;;;;28.45;51.64;100771.00;4970179;28;97500;-71
2022/07/01 04:46:40;;;;;;;22.63;18.08;;;;;;;28.44;52.27;100774.72;4969222;28;101643;-72
2022/07/01 04:49:07;;;;;;;21.25;17.67;;;;;;;28.44;52.19;100775.56;4970339;28;98788;-72
2022/07/01 04:51:34;;;;;;;23.98;18.20;;;;;;;28.42;51.97;100769.44;4969023;28;96893;-72
2022/07/01 04:54:01;;;;;;;21.15;17.48;;;;;;;28.53;51.83;100766.41;4969348;28;99084;-72
2022/07/01 04:56:28;;;;;;;20.38;18.00;;;;;;;28.68;51.46;100771.16;4970128;28;99178;-72
2022/07/01 04:58:55;;;;;;;22.50;17.83;;;;;;;28.80;50.64;100770.69;4970767;28;99795;-72
2022/07/01 05:01:22;;;;;;;21.50;17.30;;;;;;;29.04;50.60;100767.06;4964157;28;97676;-71
2022/07/01 05:03:50;;;;;;;23.05;17.27;;;;;;;29.17;50.46;100771.97;4964534;28;96969;-72
2022/07/01 05:06:16;;;;;;;20.20;16.42;;;;;;;29.88;48.99;100771.03;4961302;28;99491;-73
2022/07/01 05:08:43;;;;;;;20.02;16.90;;;;;;;30.76;46.22;100768.75;4961829;28;97749;-73
2022/07/01 05:11:09;;;;;;;19.67;15.65;;;;;;;31.39;44.88;100770.16;4958835;28;96878;-72
2022/07/01 05:13:35;;;;;;;23.75;17.23;;;;;;;31.03;45.05;100761.84;4963447;28;97644;-72
2022/07/01 05:16:03;;;;;;;24.33;17.05;;;;;;;30.56;46.19;100767.56;4966521;28;98806;-72
2022/07/01 05:23:59;;;;;;;20.73;16.33;;;;;;;32.06;42.70;100777.16;4965727;28;98802;-72
2022/07/01 05:26:25;;;;;;;18.65;15.75;;;;;;;32.17;42.41;100788.63;4962362;28;99264;-73
2022/07/01 05:28:53;;;;;;;27.63;15.98;;;;;;;31.94;42.91;100797.81;4969520;28;98960;-73
2022/07/01 05:31:19;;;;;;;23.25;16.17;;;;;;;31.62;43.62;100817.38;4967183;28;97333;-74
2022/07/01 05:33:46;;;;;;;40.45;16.55;;;;;;;31.37;44.13;100824.97;4973214;28;96978;-74
2022/07/01 05:36:15;;;;;;;20.30;15.43;;;;;;;30.99;44.72;100825.97;4973002;28;99744;-73
2022/07/01 05:38:42;;;;;;;19.75;15.95;;;;;;;30.60;45.42;100829.72;4969360;28;99047;-74
2022/07/01 05:41:08;;;;;;;20.13;15.45;;;;;;;30.72;45.74;100839.16;4969948;28;97349;-74
2022/07/01 05:43:38;;;;;;;18.38;16.02;;;;;;;30.57;46.05;100837.44;4971885;28;96837;-74
2022/07/01 05:46:04;;;;;;;18.70;15.77;;;;;;;30.78;45.40;100841.19;4970734;28;98908;-74
2022/07/01 05:48:30;;;;;;;19.27;15.13;;;;;;;30.47;45.77;100833.03;4968789;28;99002;-73
2022/07/01 05:50:57;;;;;;;21.45;15.48;;;;;;;30.94;45.44;100839.34;4973896;28;97346;-74
2022/07/01 05:53:24;;;;;;;22.38;15.10;;;;;;;31.17;44.52;100845.66;4969492;28;96729;-73
2022/07/01 05:55:51;;;;;;;20.77;15.35;;;;;;;31.07;45.00;100856.81;4970491;28;99116;-73
2022/07/01 05:58:17;;;;;;;20.75;15.35;;;;;;;30.95;45.19;100852.81;4969794;28;98908;-73
2022/07/01 06:00:44;;;;;;;21.75;15.68;;;;;;;30.63;45.93;100858.53;4969306;28;99172;-73
2022/07/01 06:03:10;;;;;;;26.92;16.50;;;;;;;30.55;45.99;100853.97;4970885;28;97615;-73
2022/07/01 06:05:37;;;;;;;20.33;15.27;;;;;;;30.49;45.94;100860.16;4970275;28;98985;-73
2022/07/01 06:08:04;;;;;;;21.05;17.13;;;;;;;30.22;46.79;100861.47;4969604;28;98914;-72
2022/07/01 06:10:32;;;;;;;20.55;16.25;;;;;;;30.22;46.61;100857.88;4968007;28;96815;-72
2022/07/01 06:12:58;;;;;;;20.77;15.65;;;;;;;30.09;46.92;100872.09;4969874;28;96965;-73
2022/07/01 06:15:25;;;;;;;20.50;16.38;;;;;;;30.27;46.86;100869.94;4970143;28;99283;-73
2022/07/01 06:17:53;;;;;;;21.20;16.00;;;;;;;30.08;46.96;100878.56;4969238;28;98070;-74
2022/07/01 06:20:19;;;;;;;31.98;17.10;;;;;;;30.18;46.77;100881.94;4974353;28;98260;-73
2022/07/01 06:22:46;;;;;;;19.98;16.10;;;;;;;30.43;46.28;100871.75;4972268;28;98391;-72
2022/07/01 06:25:13;;;;;;;23.98;17.15;;;;;;;30.61;46.23;100869.59;4968812;28;98781;-72
2022/07/01 06:27:41;;;;;;;19.95;15.70;;;;;;;30.70;45.58;100875.84;4974104;28;102316;-72
2022/07/01 06:30:08;;;;;;;18.92;16.15;;;;;;;30.93;45.35;100873.94;4969839;28;99008;-73
2022/07/01 06:32:35;;;;;;;20.70;16.40;;;;;;;30.85;45.34;100871.31;4969902;28;97166;-73
2022/07/01 06:35:01;;;;;;;20.00;16.05;;;;;;;30.90;44.88;100871.59;4972180;28;97744;-74
2022/07/01 06:37:28;;;;;;;22.60;17.10;;;;;;;30.75;45.03;100867.97;4969950;28;99342;-73
2022/07/01 06:39:54;;;;;;;21.02;16.48;;;;;;;31.00;45.35;100877.66;4969678;28;97727;-73
2022/07/01 06:42:23;;;;;;;21.50;17.83;;;;;;;31.00;44.72;100877.66;4970134;28;97029;-73
2022/07/01 06:44:50;;;;;;;29.00;18.88;;;;;;;30.94;44.80;100878.38;4971598;28;99050;-74
2022/07/01 06:47:16;;;;;;;24.10;19.63;;;;;;;30.34;46.49;100884.56;4969706;28;98836;-72
2022/07/01 06:49:43;;;;;;;24.10;17.05;;;;;;;29.97;47.34;100887.13;4971171;28;96722;-72
2022/07/01 06:52:09;;;;;;;22.20;18.30;;;;;;;30.33;46.43;100882.00;4969824;28;98718;-72
2022/07/01 06:54:37;;;;;;;28.30;17.52;;;;;;;30.30;46.41;100869.59;4970777;28;102482;-73
2022/07/01 06:57:04;;;;;;;19.35;17.13;;;;;;;30.12;46.42;100877.22;4969291;28;98651;-74
2022/07/01 06:59:30;;;;;;;22.08;17.40;;;;;;;30.52;45.85;100875.31;4970366;28;97215;-72
2022/07/01 07:01:58;;;;;;;22.67;17.40;;;;;;;30.63;44.64;100872.16;4969751;28;97122;-72
2022/07/01 07:04:25;;;;;;;20.88;16.42;;;;;;;30.55;44.57;100866.75;4962699;28;97953;-72
2022/07/01 07:06:51;;;;;;;21.95;15.80;;;;;;;31.05;43.64;100868.97;4968291;28;99539;-72
2022/07/01 07:09:18;;;;;;;21.80;16.80;;;;;;;31.23;43.21;100873.06;4969813;28;97317;-72
2022/07/01 07:11:44;;;;;;;21.58;15.65;;;;;;;31.16;43.41;100863.91;4967061;28;98492;-73
2022/07/01 07:14:11;;;;;;;21.40;16.40;;;;;;;31.40;42.79;100862.78;4969782;28;99289;-73
2022/07/01 07:16:38;;;;;;;18.63;14.50;;;;;;;31.44;41.96;100857.84;4969564;28;98822;-73
2022/07/01 07:19:06;;;;;;;17.83;14.20;;;;;;;31.46;41.72;100855.75;4970246;28;96920;-73
2022/07/01 07:21:32;;;;;;;18.30;14.48;;;;;;;31.25;41.87;100860.03;4969706;28;97255;-73
2022/07/01 07:23:58;;;;;;;14.98;12.38;;;;;;;30.93;42.03;100865.78;4972136;28;99068;-74
2022/07/01 07:26:25;;;;;;;13.20;11.88;;;;;;;31.03;41.69;100858.19;4973379;28;101783;-73
2022/07/01 07:28:51;;;;;;;15.07;12.60;;;;;;;31.22;41.02;100857.69;4972194;28;96749;-73
2022/07/01 07:31:18;;;;;;;19.30;12.75;;;;;;;31.30;41.01;100864.13;4971127;28;97455;-73
2022/07/01 07:33:44;;;;;;;14.73;12.00;;;;;;;31.39;40.36;100865.72;4969627;28;99019;-74
2022/07/01 07:36:12;;;;;;;12.68;10.82;;;;;;;31.35;39.90;100862.53;4970692;28;98997;-74
2022/07/01 07:38:39;;;;;;;14.95;11.00;;;;;;;31.86;38.99;100858.03;4969920;28;96783;-74
2022/07/01 07:41:05;;;;;;;10.70;9.70;;;;;;;32.09;38.45;100857.06;4969206;28;97209;-74
2022/07/01 07:43:32;;;;;;;10.55;8.95;;;;;;;32.00;38.13;100851.72;4970645;28;99405;-74
2022/07/01 07:45:58;;;;;;;11.68;10.02;;;;;;;31.38;38.94;100853.94;4971313;28;98054;-73
2022/07/01 07:48:25;;;;;;;11.32;10.02;;;;;;;31.52;39.12;100858.56;4969811;28;97267;-72
2022/07/01 07:50:51;;;;;;;12.18;9.80;;;;;;;31.15;39.69;100854.00;4969835;28;96997;-72
2022/07/01 07:53:19;;;;;;;13.63;10.32;;;;;;;31.36;39.42;100855.19;4973799;28;99292;-72
2022/07/01 07:55:45;;;;;;;12.48;9.93;;;;;;;31.12;40.23;100843.44;4970561;28;98794;-72
2022/07/01 07:58:12;;;;;;;12.18;9.25;;;;;;;31.26;39.51;100850.81;4968196;28;97499;-72
2022/07/01 08:00:38;;;;;;;13.00;9.63;;;;;;;31.66;38.96;100851.44;4967993;28;97043;-73
2022/07/01 08:03:04;;;;;;;11.95;9.60;;;;;;;32.03;38.54;100854.03;4952092;28;102332;-72
2022/07/01 08:05:31;;;;;;;15.07;10.65;;;;;;;31.66;38.88;100846.84;4969281;28;98315;-72
2022/07/01 08:07:57;;;;;;;13.77;9.80;;;;;;;32.11;38.46;100850.34;4975417;28;97427;-72
2022/07/01 08:10:25;;;;;;;18.10;10.50;;;;;;;32.24;37.93;100847.81;4971000;28;97364;-73
2022/07/01 08:12:51;;;;;;;13.25;9.68;;;;;;;31.52;39.42;100853.09;4968940;28;98911;-73
2022/07/01 08:15:18;;;;;;;12.30;9.23;;;;;;;31.32;39.50;100851.97;4973999;28;98995;-73
2022/07/01 08:17:44;;;;;;;13.77;9.13;;;;;;;30.52;40.73;100854.34;4976869;28;96853;-73
2022/07/01 08:20:11;;;;;;;9.50;8.60;;;;;;;30.37;40.77;100850.66;4974355;28;97742;-71
2022/07/01 08:22:37;;;;;;;10.25;8.65;;;;;;;30.31;40.83;100845.94;4979551;28;98967;-72
2022/07/01 08:25:05;;;;;;;13.55;8.90;;;;;;;30.90;39.92;100857.97;4973400;28;98992;-74
2022/07/01 08:27:32;;;;;;;9.82;8.80;;;;;;;30.71;40.62;100856.59;4980439;28;97187;-73
2022/07/01 08:30:08;;;;;;;10.82;9.25;;;;;;;30.36;41.38;100863.44;4971887;28;97020;-73
2022/07/01 08:32:35;;;;;;;15.20;9.63;;;;;;;30.46;41.22;100869.50;4980745;28;101350;-73
2022/07/01 08:35:01;;;;;;;10.25;9.25;;;;;;;30.21;41.70;100872.53;4976526;28;98986;-73
2022/07/01 08:37:28;;;;;;;11.05;9.20;;;;;;;30.68;40.55;100870.56;4979889;28;96821;-72
2022/07/01 08:39:54;;;;;;;12.27;9.80;;;;;;;30.82;40.56;100875.25;4978193;28;97026;-74
2022/07/01 08:42:20;;;;;;;13.63;9.18;;;;;;;30.96;40.74;100870.88;4979567;28;99313;-74
2022/07/01 08:44:48;;;;;;;13.68;10.00;;;;;;;31.66;39.45;100876.88;4975526;28;101388;-73
2022/07/01 08:47:15;;;;;;;13.40;10.02;;;;;;;31.90;38.86;100874.91;4972792;28;98580;-72
2022/07/01 08:49:42;;;;;;;13.77;10.60;;;;;;;31.75;39.38;100874.91;4975596;28;98789;-72
2022/07/01 08:52:09;;;;;;;11.15;9.98;;;;;;;31.86;39.24;100865.38;4975391;28;98956;-73
2022/07/01 08:54:37;;;;;;;12.73;11.00;;;;;;;31.94;38.96;100863.41;4980514;28;98099;-73
2022/07/01 08:57:04;;;;;;;12.15;10.02;;;;;;;32.38;38.00;100867.94;4973220;28;97242;-73
2022/07/01 08:59:31;;;;;;;10.50;9.40;;;;;;;32.42;37.65;100861.91;4980404;28;96900;-72
2022/07/01 09:02:01;;;;;;;13.65;9.23;;;;;;;32.66;37.08;100868.91;4974496;28;99539;-73
2022/07/01 09:04:29;;;;;;;12.82;8.85;;;;;;;32.92;36.73;100870.22;4972837;28;97736;-73
2022/07/01 09:07:04;;;;;;;10.65;8.60;;;;;;;32.67;36.89;100878.84;4975043;28;97261;-74
2022/07/01 09:09:35;;;;;;;12.77;9.15;;;;;;;32.91;35.70;100879.47;4973740;28;96801;-73
2022/07/01 09:12:01;;;;;;;10.70;9.13;;;;;;;32.31;36.84;100884.28;4973882;28;98617;-73
2022/07/01 09:14:30;;;;;;;9.52;7.97;;;;;;;31.96;37.18;100883.19;4982912;28;102417;-73
2022/07/01 09:16:59;;;;;;;9.25;6.15;;;;;;;30.96;38.52;100887.25;4973793;28;97562;-73
2022/07/01 09:19:28;;;;;;;7.30;6.47;;;;;;;30.95;38.67;100898.34;4968873;28;96835;-73
2022/07/01 09:21:57;;;;;;;8.35;4.20;;;;;;;30.51;40.95;100909.06;4972648;28;99137;-73
2022/07/01 09:24:29;;;;;;;5.00;2.92;;;;;;;29.78;43.00;100934.69;4975779;28;97994;-74
2022/07/01 09:26:58;;;;;;;8.20;2.50;;;;;;;29.26;44.42;100942.38;4970768;28;97018;-72
2022/07/01 09:29:31;;;;;;;7.43;2.28;;;;;;;28.69;45.21;100950.44;4970048;28;96949;-72
2022/07/01 09:31:59;;;;;;;6.20;2.65;;;;;;;27.98;46.91;100958.97;4970863;28;99167;-73
2022/07/01 09:34:26;;;;;;;21.73;2.53;;;;;;;28.00;46.81;100970.53;4974263;28;99906;-73
2022/07/01 09:36:54;;;;;;;11.63;1.80;;;;;;;28.21;46.04;100982.88;4972639;28;96794;-73
2022/07/01 09:39:20;;;;;;;2.92;1.50;;;;;;;27.58;46.94;100989.41;4974495;28;97315;-72
2022/07/01 09:41:47;;;;;;;3.47;1.30;;;;;;;27.39;47.37;100992.28;4973532;28;101346;-72
2022/07/01 09:44:14;;;;;;;8.07;1.05;;;;;;;26.91;48.06;100992.69;4972053;28;99393;-74
2022/07/01 09:47:17;;;;;;;4.03;3.03;;;;;;;26.26;49.49;101008.13;4963482;28;97579;-73
2022/07/01 09:49:45;;;;;;;3.90;1.20;;;;;;;25.35;51.93;101008.72;4974922;28;96934;-69
2022/07/01 09:52:12;;;;;;;7.28;1.08;;;;;;;25.39;51.71;101027.25;4977636;28;98999;-69
2022/07/01 09:54:38;;;;;;;25.90;2.25;;;;;;;24.92;52.97;101033.47;4976772;28;98759;-69
2022/07/01 09:57:06;;;;;;;2.10;0.95;;;;;;;25.07;52.74;101047.44;4973783;28;97224;-70
2022/07/01 09:59:32;;;;;;;1.45;1.00;;;;;;;25.26;52.34;101051.00;4962568;28;99653;-71
2022/07/01 10:02:01;;;;;;;5.65;1.00;;;;;;;24.86;52.75;101058.31;4972081;28;101489;-71
2022/07/01 10:04:28;;;;;;;3.17;1.10;;;;;;;24.50;54.62;101059.75;4971917;28;98216;-70
2022/07/01 10:07:16;;;;;;;4.72;1.10;;;;;;;25.00;53.00;101061.50;4977744;28;97003;-70
2022/07/01 10:10:03;;;;;;;1.45;1.00;;;;;;;24.55;53.78;101062.88;4970509;28;98755;-70
2022/07/01 10:12:34;;;;;;;1.20;0.93;;;;;;;24.92;52.93;101055.94;4974052;28;100395;-69
2022/07/01 10:15:03;;;;;;;3.15;1.73;;;;;;;24.71;53.26;101063.25;4979598;28;97844;-70
2022/07/01 10:17:30;;;;;;;2.25;1.10;;;;;;;24.72;53.42;101054.16;4974873;28;97608;-69
2022/07/01 10:19:58;;;;;;;3.13;1.40;;;;;;;24.78;53.32;101055.44;4977296;28;97365;-70
2022/07/01 10:22:27;;;;;;;3.25;1.35;;;;;;;24.51;53.96;101066.88;4977805;28;99037;-71
2022/07/01 10:24:54;;;;;;;2.05;1.08;;;;;;;24.46;53.52;101064.59;4972995;28;99249;-70
2022/07/01 10:27:21;;;;;;;2.15;0.80;;;;;;;24.56;53.71;101080.81;4967075;28;98321;-71
2022/07/01 10:29:48;;;;;;;4.32;1.15;;;;;;;24.59;53.86;101092.22;4969914;28;96958;-70
2022/07/01 10:32:28;;;;;;;3.72;1.50;;;;;;;24.38;53.82;101093.25;4966869;28;98050;-71
2022/07/01 10:35:04;;;;;;;4.10;1.27;;;;;;;24.23;55.03;101093.59;4976048;28;100995;-70
2022/07/01 10:37:32;;;;;;;2.13;1.30;;;;;;;24.48;54.00;101096.88;4971688;28;96790;-69
2022/07/01 10:40:00;;;;;;;4.32;1.77;;;;;;;23.94;55.71;101111.44;4971646;28;96940;-70
2022/07/01 10:42:32;;;;;;;2.75;1.70;;;;;;;23.83;56.00;101097.97;4975651;28;98983;-70
2022/07/01 10:45:08;;;;;;;1.80;1.30;;;;;;;24.22;55.15;101075.69;4972475;28;98835;-69
2022/07/01 10:47:36;;;;;;;5.30;1.80;;;;;;;24.30;55.15;101096.63;4972615;28;96809;-69
2022/07/01 10:50:08;;;;;;;4.78;1.02;;;;;;;24.37;54.46;101123.94;4971801;28;97337;-70
2022/07/01 10:52:36;;;;;;;3.30;1.42;;;;;;;24.44;53.98;101123.28;4974447;28;98883;-70
2022/07/01 10:55:04;;;;;;;2.55;0.95;;;;;;;23.88;55.33;101097.63;4981402;28;99173;-70
2022/07/01 10:57:38;;;;;;;0.80;0.80;;;;;;;24.24;54.03;101107.94;4967339;28;97682;-69
2022/07/01 11:00:32;;;;;;;2.25;1.20;;;;;;;23.89;54.81;101126.31;4972203;28;97457;-71
2022/07/01 11:03:11;;;;;;;2.10;0.80;;;;;;;24.38;53.55;101125.66;4971787;28;98744;-69
2022/07/01 11:05:38;;;;;;;1.20;0.52;;;;;;;24.14;53.90;101118.69;4971828;28;102092;-69
2022/07/01 11:08:11;;;;;;;1.02;0.70;;;;;;;24.16;54.08;101121.22;4971519;28;97103;-69
2022/07/01 11:10:39;;;;;;;2.58;0.70;;;;;;;23.30;56.85;101138.38;4971381;28;97467;-70
2022/07/01 11:13:05;;;;;;;1.95;0.80;;;;;;;22.96;58.19;101134.06;4974256;28;99081;-69
2022/07/01 11:15:33;;;;;;;3.45;0.73;;;;;;;23.35;57.30;101152.34;4974743;28;98734;-68
2022/07/01 11:18:01;;;;;;;0.95;0.40;;;;;;;23.29;57.48;101158.25;4972204;28;96789;-70
2022/07/01 11:20:32;;;;;;;3.97;0.68;;;;;;;23.49;57.20;101158.47;4971927;28;97378;-69
2022/07/01 11:22:58;;;;;;;0.70;0.40;;;;;;;23.60;56.28;101121.53;4975229;28;99202;-69
2022/07/01 11:25:27;;;;;;;4.85;0.80;;;;;;;23.01;58.47;101112.97;4970841;28;101680;-69